sensor_id;sensor_type;location;lat;lon;timestamp;temperature;humidity
2999;DHT22;1509;51.964;7.628;2024-03-25T00:00:22;5.60;99.90
2999;DHT22;1509;51.964;7.628;2024-03-25T00:02:50;5.60;99.90
2999;DHT22;1509;51.964;7.628;2024-03-25T00:05:16;5.60;99.90
2999;DHT22;1509;51.964;7.628;2024-03-25T00:07:48;5.70;99.90
2999;DHT22;1509;51.964;7.628;2024-03-25T00:10:14;5.50;99.90
2999;DHT22;1509;51.964;7.628;2024-03-25T00:12:40;5.50;99.90
2999;DHT22;1509;51.964;7.628;2024-03-25T00:15:06;5.50;99.90
2999;DHT22;1509;51.964;7.628;2024-03-25T00:17:32;5.50;99.90
2999;DHT22;1509;51.964;7.628;2024-03-25T00:19:58;5.40;99.90
2999;DHT22;1509;51.964;7.628;2024-03-25T00:22:23;5.30;99.90
2999;DHT22;1509;51.964;7.628;2024-03-25T00:24:51;5.30;99.90
2999;DHT22;1509;51.964;7.628;2024-03-25T00:27:17;5.30;99.90
2999;DHT22;1509;51.964;7.628;2024-03-25T00:29:44;5.30;99.90
2999;DHT22;1509;51.964;7.628;2024-03-25T00:32:09;5.30;99.90
2999;DHT22;1509;51.964;7.628;2024-03-25T00:34:36;5.30;99.90
2999;DHT22;1509;51.964;7.628;2024-03-25T00:37:02;5.30;99.90
2999;DHT22;1509;51.964;7.628;2024-03-25T00:39:29;5.20;99.90
2999;DHT22;1509;51.964;7.628;2024-03-25T00:41:57;5.20;99.90
2999;DHT22;1509;51.964;7.628;2024-03-25T00:44:23;5.20;99.90
2999;DHT22;1509;51.964;7.628;2024-03-25T00:46:49;5.20;99.90
2999;DHT22;1509;51.964;7.628;2024-03-25T00:49:15;5.20;99.90
2999;DHT22;1509;51.964;7.628;2024-03-25T00:51:40;5.20;99.90
2999;DHT22;1509;51.964;7.628;2024-03-25T00:54:15;5.30;99.90
2999;DHT22;1509;51.964;7.628;2024-03-25T00:56:43;5.30;99.90
2999;DHT22;1509;51.964;7.628;2024-03-25T00:59:09;5.30;99.90
2999;DHT22;1509;51.964;7.628;2024-03-25T01:01:35;5.20;99.90
2999;DHT22;1509;51.964;7.628;2024-03-25T01:04:03;5.40;99.90
2999;DHT22;1509;51.964;7.628;2024-03-25T01:06:29;5.30;99.90
2999;DHT22;1509;51.964;7.628;2024-03-25T01:08:55;5.30;99.90
2999;DHT22;1509;51.964;7.628;2024-03-25T01:11:20;5.30;99.90
2999;DHT22;1509;51.964;7.628;2024-03-25T01:13:47;5.30;99.90
2999;DHT22;1509;51.964;7.628;2024-03-25T01:16:13;5.30;99.90
2999;DHT22;1509;51.964;7.628;2024-03-25T01:18:38;5.30;99.90
2999;DHT22;1509;51.964;7.628;2024-03-25T01:21:04;5.30;99.90
2999;DHT22;1509;51.964;7.628;2024-03-25T01:23:30;5.30;99.90
2999;DHT22;1509;51.964;7.628;2024-03-25T01:25:55;5.30;99.90
2999;DHT22;1509;51.964;7.628;2024-03-25T01:28:21;5.30;99.90
2999;DHT22;1509;51.964;7.628;2024-03-25T01:30:48;5.30;99.90
2999;DHT22;1509;51.964;7.628;2024-03-25T01:33:14;5.30;99.90
2999;DHT22;1509;51.964;7.628;2024-03-25T01:35:39;5.30;99.90
2999;DHT22;1509;51.964;7.628;2024-03-25T01:38:05;5.50;99.90
2999;DHT22;1509;51.964;7.628;2024-03-25T01:40:31;5.30;99.90
2999;DHT22;1509;51.964;7.628;2024-03-25T01:42:57;5.30;99.90
2999;DHT22;1509;51.964;7.628;2024-03-25T01:45:27;5.20;99.90
2999;DHT22;1509;51.964;7.628;2024-03-25T01:47:54;5.30;99.90
2999;DHT22;1509;51.964;7.628;2024-03-25T01:50:20;5.20;99.90
2999;DHT22;1509;51.964;7.628;2024-03-25T01:52:47;5.20;99.90
2999;DHT22;1509;51.964;7.628;2024-03-25T01:55:21;5.20;99.90
2999;DHT22;1509;51.964;7.628;2024-03-25T01:57:49;5.20;99.90
2999;DHT22;1509;51.964;7.628;2024-03-25T02:00:15;5.10;99.90
2999;DHT22;1509;51.964;7.628;2024-03-25T02:02:44;5.20;99.90
2999;DHT22;1509;51.964;7.628;2024-03-25T02:05:15;5.30;99.90
2999;DHT22;1509;51.964;7.628;2024-03-25T02:07:41;5.20;99.90
2999;DHT22;1509;51.964;7.628;2024-03-25T02:10:07;5.20;99.90
2999;DHT22;1509;51.964;7.628;2024-03-25T02:12:38;5.30;99.90
2999;DHT22;1509;51.964;7.628;2024-03-25T02:15:05;5.20;99.90
2999;DHT22;1509;51.964;7.628;2024-03-25T02:17:31;5.20;99.90
2999;DHT22;1509;51.964;7.628;2024-03-25T02:19:57;5.30;99.90
2999;DHT22;1509;51.964;7.628;2024-03-25T02:22:22;5.40;99.90
2999;DHT22;1509;51.964;7.628;2024-03-25T02:24:50;5.30;99.90
2999;DHT22;1509;51.964;7.628;2024-03-25T02:27:18;5.30;99.90
2999;DHT22;1509;51.964;7.628;2024-03-25T02:29:43;5.30;99.90
2999;DHT22;1509;51.964;7.628;2024-03-25T02:32:12;5.20;99.90
2999;DHT22;1509;51.964;7.628;2024-03-25T02:34:41;5.20;99.90
2999;DHT22;1509;51.964;7.628;2024-03-25T02:37:08;5.20;99.90
2999;DHT22;1509;51.964;7.628;2024-03-25T02:39:35;5.10;99.90
2999;DHT22;1509;51.964;7.628;2024-03-25T02:42:01;5.10;99.90
2999;DHT22;1509;51.964;7.628;2024-03-25T02:44:27;5.00;99.90
2999;DHT22;1509;51.964;7.628;2024-03-25T02:46:53;5.10;99.90
2999;DHT22;1509;51.964;7.628;2024-03-25T02:49:18;4.90;99.90
2999;DHT22;1509;51.964;7.628;2024-03-25T02:51:44;4.90;99.90
2999;DHT22;1509;51.964;7.628;2024-03-25T02:54:10;4.90;99.90
2999;DHT22;1509;51.964;7.628;2024-03-25T02:56:35;5.00;99.90
2999;DHT22;1509;51.964;7.628;2024-03-25T02:59:01;5.00;99.90
2999;DHT22;1509;51.964;7.628;2024-03-25T03:01:27;5.00;99.90
2999;DHT22;1509;51.964;7.628;2024-03-25T03:03:52;5.00;99.90
2999;DHT22;1509;51.964;7.628;2024-03-25T03:06:18;5.00;99.90
2999;DHT22;1509;51.964;7.628;2024-03-25T03:08:44;5.00;99.90
2999;DHT22;1509;51.964;7.628;2024-03-25T03:11:10;5.00;99.90
2999;DHT22;1509;51.964;7.628;2024-03-25T03:13:35;5.00;99.90
2999;DHT22;1509;51.964;7.628;2024-03-25T03:16:01;5.00;99.90
2999;DHT22;1509;51.964;7.628;2024-03-25T03:18:27;5.10;99.90
2999;DHT22;1509;51.964;7.628;2024-03-25T03:20:53;5.10;99.90
2999;DHT22;1509;51.964;7.628;2024-03-25T03:23:24;5.10;99.90
2999;DHT22;1509;51.964;7.628;2024-03-25T03:25:50;5.30;99.90
2999;DHT22;1509;51.964;7.628;2024-03-25T03:28:16;5.10;99.90
2999;DHT22;1509;51.964;7.628;2024-03-25T03:30:42;5.10;99.90
2999;DHT22;1509;51.964;7.628;2024-03-25T03:33:10;5.10;99.90
2999;DHT22;1509;51.964;7.628;2024-03-25T03:35:36;4.90;99.90
2999;DHT22;1509;51.964;7.628;2024-03-25T03:38:02;5.10;99.90
2999;DHT22;1509;51.964;7.628;2024-03-25T03:40:29;5.10;99.90
2999;DHT22;1509;51.964;7.628;2024-03-25T03:42:55;5.20;99.90
2999;DHT22;1509;51.964;7.628;2024-03-25T03:45:23;5.10;99.90
2999;DHT22;1509;51.964;7.628;2024-03-25T03:47:51;5.10;99.90
2999;DHT22;1509;51.964;7.628;2024-03-25T03:50:17;5.20;99.90
2999;DHT22;1509;51.964;7.628;2024-03-25T03:52:42;5.20;99.90
2999;DHT22;1509;51.964;7.628;2024-03-25T03:55:08;5.20;99.90
2999;DHT22;1509;51.964;7.628;2024-03-25T03:57:34;5.20;99.90
2999;DHT22;1509;51.964;7.628;2024-03-25T04:00:02;5.20;99.90
2999;DHT22;1509;51.964;7.628;2024-03-25T04:02:30;5.10;99.90
2999;DHT22;1509;51.964;7.628;2024-03-25T04:04:55;5.20;99.90
2999;DHT22;1509;51.964;7.628;2024-03-25T04:07:21;5.20;99.90
2999;DHT22;1509;51.964;7.628;2024-03-25T04:09:54;5.20;99.90
2999;DHT22;1509;51.964;7.628;2024-03-25T04:12:20;5.20;99.90
2999;DHT22;1509;51.964;7.628;2024-03-25T04:14:48;5.30;99.90
2999;DHT22;1509;51.964;7.628;2024-03-25T04:17:18;5.10;99.90
2999;DHT22;1509;51.964;7.628;2024-03-25T04:19:44;5.20;99.90
2999;DHT22;1509;51.964;7.628;2024-03-25T04:22:09;5.20;99.90
2999;DHT22;1509;51.964;7.628;2024-03-25T04:24:35;5.20;99.90
2999;DHT22;1509;51.964;7.628;2024-03-25T04:27:01;5.20;99.90
2999;DHT22;1509;51.964;7.628;2024-03-25T04:29:26;5.20;99.90
2999;DHT22;1509;51.964;7.628;2024-03-25T04:31:52;5.20;99.90
2999;DHT22;1509;51.964;7.628;2024-03-25T04:34:18;5.30;99.90
2999;DHT22;1509;51.964;7.628;2024-03-25T04:36:44;5.20;99.90
2999;DHT22;1509;51.964;7.628;2024-03-25T04:39:10;5.20;99.90
2999;DHT22;1509;51.964;7.628;2024-03-25T04:41:36;5.20;99.90
2999;DHT22;1509;51.964;7.628;2024-03-25T04:44:02;5.10;99.90
2999;DHT22;1509;51.964;7.628;2024-03-25T04:46:28;5.10;99.90
2999;DHT22;1509;51.964;7.628;2024-03-25T04:49:01;5.10;99.90
2999;DHT22;1509;51.964;7.628;2024-03-25T04:51:26;5.20;99.90
2999;DHT22;1509;51.964;7.628;2024-03-25T04:53:52;5.10;99.90
2999;DHT22;1509;51.964;7.628;2024-03-25T04:56:18;5.10;99.90
2999;DHT22;1509;51.964;7.628;2024-03-25T04:58:44;5.10;99.90
2999;DHT22;1509;51.964;7.628;2024-03-25T05:01:09;5.10;99.90
2999;DHT22;1509;51.964;7.628;2024-03-25T05:03:35;5.20;99.90
2999;DHT22;1509;51.964;7.628;2024-03-25T05:06:01;5.00;99.90
2999;DHT22;1509;51.964;7.628;2024-03-25T05:08:26;5.30;99.90
2999;DHT22;1509;51.964;7.628;2024-03-25T05:10:52;5.00;99.90
2999;DHT22;1509;51.964;7.628;2024-03-25T05:13:17;5.00;99.90
2999;DHT22;1509;51.964;7.628;2024-03-25T05:15:52;5.10;99.90
2999;DHT22;1509;51.964;7.628;2024-03-25T05:18:18;5.10;99.90
2999;DHT22;1509;51.964;7.628;2024-03-25T05:20:44;4.90;99.90
2999;DHT22;1509;51.964;7.628;2024-03-25T05:23:10;4.90;99.90
2999;DHT22;1509;51.964;7.628;2024-03-25T05:25:36;4.90;99.90
2999;DHT22;1509;51.964;7.628;2024-03-25T05:28:02;4.90;99.90
2999;DHT22;1509;51.964;7.628;2024-03-25T05:30:27;4.90;99.90
2999;DHT22;1509;51.964;7.628;2024-03-25T05:32:53;4.80;99.90
2999;DHT22;1509;51.964;7.628;2024-03-25T05:35:19;4.80;99.90
2999;DHT22;1509;51.964;7.628;2024-03-25T05:37:44;4.80;99.90
2999;DHT22;1509;51.964;7.628;2024-03-25T05:40:10;4.80;99.90
2999;DHT22;1509;51.964;7.628;2024-03-25T05:42:37;4.80;99.90
2999;DHT22;1509;51.964;7.628;2024-03-25T05:45:03;4.80;99.90
2999;DHT22;1509;51.964;7.628;2024-03-25T05:47:29;4.80;99.90
2999;DHT22;1509;51.964;7.628;2024-03-25T05:49:55;4.80;99.90
2999;DHT22;1509;51.964;7.628;2024-03-25T05:52:20;4.80;99.90
2999;DHT22;1509;51.964;7.628;2024-03-25T05:54:46;4.80;99.90
2999;DHT22;1509;51.964;7.628;2024-03-25T05:57:11;4.70;99.90
2999;DHT22;1509;51.964;7.628;2024-03-25T05:59:37;4.80;99.90
2999;DHT22;1509;51.964;7.628;2024-03-25T06:02:03;4.80;99.90
2999;DHT22;1509;51.964;7.628;2024-03-25T06:04:28;4.80;99.90
2999;DHT22;1509;51.964;7.628;2024-03-25T06:06:54;4.80;99.90
2999;DHT22;1509;51.964;7.628;2024-03-25T06:09:19;4.80;99.90
2999;DHT22;1509;51.964;7.628;2024-03-25T06:11:48;4.80;99.90
2999;DHT22;1509;51.964;7.628;2024-03-25T06:14:13;4.80;99.90
2999;DHT22;1509;51.964;7.628;2024-03-25T06:16:39;4.80;99.90
2999;DHT22;1509;51.964;7.628;2024-03-25T06:19:06;4.90;99.90
2999;DHT22;1509;51.964;7.628;2024-03-25T06:21:31;4.90;99.90
2999;DHT22;1509;51.964;7.628;2024-03-25T06:23:59;5.00;99.90
2999;DHT22;1509;51.964;7.628;2024-03-25T06:26:25;5.00;99.90
2999;DHT22;1509;51.964;7.628;2024-03-25T06:28:51;5.00;99.90
2999;DHT22;1509;51.964;7.628;2024-03-25T06:31:16;5.00;99.90
2999;DHT22;1509;51.964;7.628;2024-03-25T06:34:01;4.90;99.90
2999;DHT22;1509;51.964;7.628;2024-03-25T06:36:47;5.00;99.90
2999;DHT22;1509;51.964;7.628;2024-03-25T06:39:14;5.10;99.90
2999;DHT22;1509;51.964;7.628;2024-03-25T06:41:40;5.10;99.90
2999;DHT22;1509;51.964;7.628;2024-03-25T06:44:06;5.20;99.90
2999;DHT22;1509;51.964;7.628;2024-03-25T06:46:33;5.20;99.90
2999;DHT22;1509;51.964;7.628;2024-03-25T06:48:59;5.20;99.90
2999;DHT22;1509;51.964;7.628;2024-03-25T06:51:25;5.20;99.90
2999;DHT22;1509;51.964;7.628;2024-03-25T06:53:50;5.20;99.90
2999;DHT22;1509;51.964;7.628;2024-03-25T06:56:16;5.30;99.90
2999;DHT22;1509;51.964;7.628;2024-03-25T06:58:42;5.40;99.90
2999;DHT22;1509;51.964;7.628;2024-03-25T07:01:09;5.30;99.90
2999;DHT22;1509;51.964;7.628;2024-03-25T07:03:35;5.40;99.90
2999;DHT22;1509;51.964;7.628;2024-03-25T07:06:01;5.50;99.90
2999;DHT22;1509;51.964;7.628;2024-03-25T07:08:27;5.40;99.90
2999;DHT22;1509;51.964;7.628;2024-03-25T07:10:54;5.50;99.90
2999;DHT22;1509;51.964;7.628;2024-03-25T07:13:19;5.50;99.90
2999;DHT22;1509;51.964;7.628;2024-03-25T07:15:45;5.60;99.90
2999;DHT22;1509;51.964;7.628;2024-03-25T07:18:11;5.90;99.90
2999;DHT22;1509;51.964;7.628;2024-03-25T07:20:38;5.70;99.90
2999;DHT22;1509;51.964;7.628;2024-03-25T07:23:04;5.80;99.90
2999;DHT22;1509;51.964;7.628;2024-03-25T07:25:30;5.80;99.90
2999;DHT22;1509;51.964;7.628;2024-03-25T07:27:56;5.90;99.90
2999;DHT22;1509;51.964;7.628;2024-03-25T07:30:22;5.90;99.90
2999;DHT22;1509;51.964;7.628;2024-03-25T07:32:50;6.10;99.90
2999;DHT22;1509;51.964;7.628;2024-03-25T07:35:15;5.90;99.90
2999;DHT22;1509;51.964;7.628;2024-03-25T07:37:43;5.90;99.90
2999;DHT22;1509;51.964;7.628;2024-03-25T07:40:09;6.00;99.90
2999;DHT22;1509;51.964;7.628;2024-03-25T07:42:35;6.00;99.90
2999;DHT22;1509;51.964;7.628;2024-03-25T07:45:01;6.10;99.90
2999;DHT22;1509;51.964;7.628;2024-03-25T07:47:27;6.30;99.90
2999;DHT22;1509;51.964;7.628;2024-03-25T07:49:53;6.20;99.90
2999;DHT22;1509;51.964;7.628;2024-03-25T07:52:18;6.30;99.90
2999;DHT22;1509;51.964;7.628;2024-03-25T07:54:44;6.20;99.90
2999;DHT22;1509;51.964;7.628;2024-03-25T07:57:09;6.30;99.90
2999;DHT22;1509;51.964;7.628;2024-03-25T07:59:35;6.60;99.90
2999;DHT22;1509;51.964;7.628;2024-03-25T08:02:01;6.30;99.90
2999;DHT22;1509;51.964;7.628;2024-03-25T08:04:26;6.30;99.90
2999;DHT22;1509;51.964;7.628;2024-03-25T08:06:52;6.30;99.90
2999;DHT22;1509;51.964;7.628;2024-03-25T08:09:20;6.40;99.90
2999;DHT22;1509;51.964;7.628;2024-03-25T08:11:46;6.50;99.90
2999;DHT22;1509;51.964;7.628;2024-03-25T08:14:12;6.60;99.90
2999;DHT22;1509;51.964;7.628;2024-03-25T08:16:37;6.80;99.90
2999;DHT22;1509;51.964;7.628;2024-03-25T08:19:04;7.00;99.90
2999;DHT22;1509;51.964;7.628;2024-03-25T08:21:30;7.30;99.90
2999;DHT22;1509;51.964;7.628;2024-03-25T08:23:55;7.40;99.90
2999;DHT22;1509;51.964;7.628;2024-03-25T08:26:21;7.60;99.90
2999;DHT22;1509;51.964;7.628;2024-03-25T08:28:46;7.60;99.90
2999;DHT22;1509;51.964;7.628;2024-03-25T08:31:14;7.80;99.90
2999;DHT22;1509;51.964;7.628;2024-03-25T08:33:40;7.80;99.90
2999;DHT22;1509;51.964;7.628;2024-03-25T08:36:06;8.00;99.90
2999;DHT22;1509;51.964;7.628;2024-03-25T08:38:31;8.10;99.90
2999;DHT22;1509;51.964;7.628;2024-03-25T08:40:57;8.50;99.90
2999;DHT22;1509;51.964;7.628;2024-03-25T08:43:23;9.20;99.90
2999;DHT22;1509;51.964;7.628;2024-03-25T08:45:48;9.60;99.90
2999;DHT22;1509;51.964;7.628;2024-03-25T08:48:14;9.70;99.90
2999;DHT22;1509;51.964;7.628;2024-03-25T08:50:39;10.20;99.90
2999;DHT22;1509;51.964;7.628;2024-03-25T08:53:05;11.10;99.90
2999;DHT22;1509;51.964;7.628;2024-03-25T08:55:31;12.30;99.90
2999;DHT22;1509;51.964;7.628;2024-03-25T08:57:57;12.90;99.90
2999;DHT22;1509;51.964;7.628;2024-03-25T09:00:26;13.20;99.90
2999;DHT22;1509;51.964;7.628;2024-03-25T09:02:55;13.20;99.90
2999;DHT22;1509;51.964;7.628;2024-03-25T09:05:21;12.10;99.90
2999;DHT22;1509;51.964;7.628;2024-03-25T09:07:50;12.00;99.90
2999;DHT22;1509;51.964;7.628;2024-03-25T09:10:18;13.00;99.90
2999;DHT22;1509;51.964;7.628;2024-03-25T09:13:02;12.50;99.90
2999;DHT22;1509;51.964;7.628;2024-03-25T09:15:31;11.90;99.90
2999;DHT22;1509;51.964;7.628;2024-03-25T09:17:57;12.40;99.90
2999;DHT22;1509;51.964;7.628;2024-03-25T09:20:22;12.90;99.90
2999;DHT22;1509;51.964;7.628;2024-03-25T09:22:48;12.20;99.90
2999;DHT22;1509;51.964;7.628;2024-03-25T09:25:15;11.80;99.90
2999;DHT22;1509;51.964;7.628;2024-03-25T09:27:41;11.30;99.90
2999;DHT22;1509;51.964;7.628;2024-03-25T09:30:07;11.20;99.90
2999;DHT22;1509;51.964;7.628;2024-03-25T09:32:35;11.50;99.90
2999;DHT22;1509;51.964;7.628;2024-03-25T09:35:01;11.90;99.90
2999;DHT22;1509;51.964;7.628;2024-03-25T09:37:27;13.30;99.90
2999;DHT22;1509;51.964;7.628;2024-03-25T09:39:55;12.30;99.90
2999;DHT22;1509;51.964;7.628;2024-03-25T09:42:32;11.40;99.90
2999;DHT22;1509;51.964;7.628;2024-03-25T09:44:59;11.70;99.90
2999;DHT22;1509;51.964;7.628;2024-03-25T09:47:25;11.60;99.90
2999;DHT22;1509;51.964;7.628;2024-03-25T09:49:53;11.20;99.90
2999;DHT22;1509;51.964;7.628;2024-03-25T09:52:19;10.70;99.90
2999;DHT22;1509;51.964;7.628;2024-03-25T09:54:45;10.50;99.90
2999;DHT22;1509;51.964;7.628;2024-03-25T09:57:11;10.50;99.90
2999;DHT22;1509;51.964;7.628;2024-03-25T09:59:37;10.50;99.90
2999;DHT22;1509;51.964;7.628;2024-03-25T10:02:04;10.20;99.90
2999;DHT22;1509;51.964;7.628;2024-03-25T10:04:30;9.90;99.90
2999;DHT22;1509;51.964;7.628;2024-03-25T10:06:56;10.00;99.90
2999;DHT22;1509;51.964;7.628;2024-03-25T10:09:24;9.50;99.90
2999;DHT22;1509;51.964;7.628;2024-03-25T10:11:51;9.60;99.90
2999;DHT22;1509;51.964;7.628;2024-03-25T10:14:17;9.70;99.90
2999;DHT22;1509;51.964;7.628;2024-03-25T10:16:43;11.40;99.90
2999;DHT22;1509;51.964;7.628;2024-03-25T10:19:09;13.00;99.90
2999;DHT22;1509;51.964;7.628;2024-03-25T10:21:35;13.70;99.90
2999;DHT22;1509;51.964;7.628;2024-03-25T10:24:01;14.30;99.90
2999;DHT22;1509;51.964;7.628;2024-03-25T10:26:31;13.60;99.90
2999;DHT22;1509;51.964;7.628;2024-03-25T10:29:02;13.40;99.90
2999;DHT22;1509;51.964;7.628;2024-03-25T10:31:28;12.90;99.90
2999;DHT22;1509;51.964;7.628;2024-03-25T10:33:54;11.80;99.90
2999;DHT22;1509;51.964;7.628;2024-03-25T10:36:21;11.00;99.90
2999;DHT22;1509;51.964;7.628;2024-03-25T10:38:49;11.10;99.90
2999;DHT22;1509;51.964;7.628;2024-03-25T10:41:17;11.90;99.90
2999;DHT22;1509;51.964;7.628;2024-03-25T10:43:47;12.20;99.90
2999;DHT22;1509;51.964;7.628;2024-03-25T10:46:17;11.90;99.90
2999;DHT22;1509;51.964;7.628;2024-03-25T10:48:59;11.80;99.90
2999;DHT22;1509;51.964;7.628;2024-03-25T10:51:26;12.10;99.90
2999;DHT22;1509;51.964;7.628;2024-03-25T10:53:52;12.70;99.90
2999;DHT22;1509;51.964;7.628;2024-03-25T10:56:21;13.00;99.90
2999;DHT22;1509;51.964;7.628;2024-03-25T10:58:50;12.60;99.90
2999;DHT22;1509;51.964;7.628;2024-03-25T11:01:17;12.10;99.90
2999;DHT22;1509;51.964;7.628;2024-03-25T11:03:47;11.70;99.90
2999;DHT22;1509;51.964;7.628;2024-03-25T11:06:18;11.50;99.90
2999;DHT22;1509;51.964;7.628;2024-03-25T11:08:43;11.60;99.90
2999;DHT22;1509;51.964;7.628;2024-03-25T11:11:13;11.90;99.90
2999;DHT22;1509;51.964;7.628;2024-03-25T11:13:39;11.80;99.90
2999;DHT22;1509;51.964;7.628;2024-03-25T11:16:07;12.80;99.90
2999;DHT22;1509;51.964;7.628;2024-03-25T11:18:37;13.80;99.90
2999;DHT22;1509;51.964;7.628;2024-03-25T11:21:05;15.30;99.90
2999;DHT22;1509;51.964;7.628;2024-03-25T11:23:41;16.90;99.90
2999;DHT22;1509;51.964;7.628;2024-03-25T11:26:22;17.40;99.90
2999;DHT22;1509;51.964;7.628;2024-03-25T11:28:49;16.80;99.90
2999;DHT22;1509;51.964;7.628;2024-03-25T11:31:15;17.00;99.90
2999;DHT22;1509;51.964;7.628;2024-03-25T11:33:42;17.00;99.90
2999;DHT22;1509;51.964;7.628;2024-03-25T11:36:08;17.10;99.90
2999;DHT22;1509;51.964;7.628;2024-03-25T11:38:34;17.10;99.90
2999;DHT22;1509;51.964;7.628;2024-03-25T11:41:00;16.50;99.90
2999;DHT22;1509;51.964;7.628;2024-03-25T11:43:26;15.40;99.90
2999;DHT22;1509;51.964;7.628;2024-03-25T11:45:52;14.10;99.90
2999;DHT22;1509;51.964;7.628;2024-03-25T11:48:19;13.40;99.90
2999;DHT22;1509;51.964;7.628;2024-03-25T11:50:46;12.80;99.90
2999;DHT22;1509;51.964;7.628;2024-03-25T11:53:13;12.70;99.90
2999;DHT22;1509;51.964;7.628;2024-03-25T11:55:41;13.00;99.90
2999;DHT22;1509;51.964;7.628;2024-03-25T11:58:09;13.90;99.90
2999;DHT22;1509;51.964;7.628;2024-03-25T12:00:35;14.70;99.90
2999;DHT22;1509;51.964;7.628;2024-03-25T12:03:00;14.80;99.90
2999;DHT22;1509;51.964;7.628;2024-03-25T12:05:26;15.10;99.90
2999;DHT22;1509;51.964;7.628;2024-03-25T12:07:52;14.80;99.90
2999;DHT22;1509;51.964;7.628;2024-03-25T12:10:22;13.70;99.90
2999;DHT22;1509;51.964;7.628;2024-03-25T12:13:08;13.50;99.90
2999;DHT22;1509;51.964;7.628;2024-03-25T12:15:33;13.50;99.90
2999;DHT22;1509;51.964;7.628;2024-03-25T12:17:59;14.30;99.90
2999;DHT22;1509;51.964;7.628;2024-03-25T12:20:25;14.90;99.90
2999;DHT22;1509;51.964;7.628;2024-03-25T12:22:50;16.00;99.90
2999;DHT22;1509;51.964;7.628;2024-03-25T12:25:19;17.20;99.90
2999;DHT22;1509;51.964;7.628;2024-03-25T12:27:46;16.70;99.90
2999;DHT22;1509;51.964;7.628;2024-03-25T12:30:14;17.20;99.90
2999;DHT22;1509;51.964;7.628;2024-03-25T12:32:44;17.30;99.90
2999;DHT22;1509;51.964;7.628;2024-03-25T12:35:14;17.60;99.90
2999;DHT22;1509;51.964;7.628;2024-03-25T12:37:45;18.00;99.90
2999;DHT22;1509;51.964;7.628;2024-03-25T12:40:12;18.20;99.90
2999;DHT22;1509;51.964;7.628;2024-03-25T12:42:38;17.50;99.90
2999;DHT22;1509;51.964;7.628;2024-03-25T12:45:07;17.00;99.90
2999;DHT22;1509;51.964;7.628;2024-03-25T12:47:33;17.10;99.90
2999;DHT22;1509;51.964;7.628;2024-03-25T12:50:01;17.00;99.90
2999;DHT22;1509;51.964;7.628;2024-03-25T12:52:27;16.20;99.90
2999;DHT22;1509;51.964;7.628;2024-03-25T12:54:53;16.10;99.90
2999;DHT22;1509;51.964;7.628;2024-03-25T12:57:19;16.10;99.90
2999;DHT22;1509;51.964;7.628;2024-03-25T12:59:47;16.50;99.90
2999;DHT22;1509;51.964;7.628;2024-03-25T13:02:13;16.60;99.90
2999;DHT22;1509;51.964;7.628;2024-03-25T13:04:39;17.20;99.90
2999;DHT22;1509;51.964;7.628;2024-03-25T13:07:06;17.30;99.90
2999;DHT22;1509;51.964;7.628;2024-03-25T13:09:32;17.40;99.90
2999;DHT22;1509;51.964;7.628;2024-03-25T13:11:58;16.70;99.90
2999;DHT22;1509;51.964;7.628;2024-03-25T13:14:24;17.50;99.90
2999;DHT22;1509;51.964;7.628;2024-03-25T13:16:50;18.00;99.90
2999;DHT22;1509;51.964;7.628;2024-03-25T13:19:16;17.40;99.90
2999;DHT22;1509;51.964;7.628;2024-03-25T13:21:42;17.80;99.90
2999;DHT22;1509;51.964;7.628;2024-03-25T13:24:08;18.50;99.90
2999;DHT22;1509;51.964;7.628;2024-03-25T13:26:34;18.20;99.90
2999;DHT22;1509;51.964;7.628;2024-03-25T13:28:59;18.60;99.90
2999;DHT22;1509;51.964;7.628;2024-03-25T13:31:25;18.50;99.90
2999;DHT22;1509;51.964;7.628;2024-03-25T13:33:51;18.90;99.90
2999;DHT22;1509;51.964;7.628;2024-03-25T13:36:17;19.40;99.90
2999;DHT22;1509;51.964;7.628;2024-03-25T13:38:44;19.20;99.90
2999;DHT22;1509;51.964;7.628;2024-03-25T13:41:09;19.20;99.90
2999;DHT22;1509;51.964;7.628;2024-03-25T13:43:35;19.10;99.90
2999;DHT22;1509;51.964;7.628;2024-03-25T13:46:01;18.40;99.90
2999;DHT22;1509;51.964;7.628;2024-03-25T13:48:26;17.50;99.90
2999;DHT22;1509;51.964;7.628;2024-03-25T13:50:55;17.00;99.90
2999;DHT22;1509;51.964;7.628;2024-03-25T13:53:21;16.50;99.90
2999;DHT22;1509;51.964;7.628;2024-03-25T13:55:46;16.10;99.90
2999;DHT22;1509;51.964;7.628;2024-03-25T13:58:14;15.80;99.90
2999;DHT22;1509;51.964;7.628;2024-03-25T14:00:41;15.70;99.90
2999;DHT22;1509;51.964;7.628;2024-03-25T14:03:06;15.30;99.90
2999;DHT22;1509;51.964;7.628;2024-03-25T14:05:32;14.90;99.90
2999;DHT22;1509;51.964;7.628;2024-03-25T14:07:58;15.30;99.90
2999;DHT22;1509;51.964;7.628;2024-03-25T14:10:24;15.40;99.90
2999;DHT22;1509;51.964;7.628;2024-03-25T14:12:49;15.10;99.90
2999;DHT22;1509;51.964;7.628;2024-03-25T14:15:15;14.80;99.90
2999;DHT22;1509;51.964;7.628;2024-03-25T14:17:41;14.80;99.90
2999;DHT22;1509;51.964;7.628;2024-03-25T14:20:07;15.10;99.90
2999;DHT22;1509;51.964;7.628;2024-03-25T14:22:34;15.40;99.90
2999;DHT22;1509;51.964;7.628;2024-03-25T14:24:59;15.50;99.90
2999;DHT22;1509;51.964;7.628;2024-03-25T14:27:26;15.50;99.90
2999;DHT22;1509;51.964;7.628;2024-03-25T14:29:52;15.20;99.90
2999;DHT22;1509;51.964;7.628;2024-03-25T14:32:19;15.60;99.90
2999;DHT22;1509;51.964;7.628;2024-03-25T14:34:45;15.60;99.90
2999;DHT22;1509;51.964;7.628;2024-03-25T14:37:11;15.40;99.90
2999;DHT22;1509;51.964;7.628;2024-03-25T14:39:36;15.50;99.90
2999;DHT22;1509;51.964;7.628;2024-03-25T14:42:02;15.60;99.90
2999;DHT22;1509;51.964;7.628;2024-03-25T14:44:29;15.10;99.90
2999;DHT22;1509;51.964;7.628;2024-03-25T14:46:55;15.20;99.90
2999;DHT22;1509;51.964;7.628;2024-03-25T14:49:20;15.10;99.90
2999;DHT22;1509;51.964;7.628;2024-03-25T14:51:46;15.10;99.90
2999;DHT22;1509;51.964;7.628;2024-03-25T14:54:11;15.20;99.90
2999;DHT22;1509;51.964;7.628;2024-03-25T14:56:37;14.90;99.90
2999;DHT22;1509;51.964;7.628;2024-03-25T14:59:03;14.80;99.90
2999;DHT22;1509;51.964;7.628;2024-03-25T15:01:29;14.40;99.90
2999;DHT22;1509;51.964;7.628;2024-03-25T15:03:57;13.80;99.90
2999;DHT22;1509;51.964;7.628;2024-03-25T15:06:22;13.70;99.90
2999;DHT22;1509;51.964;7.628;2024-03-25T15:08:48;13.70;99.90
2999;DHT22;1509;51.964;7.628;2024-03-25T15:11:13;13.40;99.90
2999;DHT22;1509;51.964;7.628;2024-03-25T15:13:39;13.40;99.90
2999;DHT22;1509;51.964;7.628;2024-03-25T15:16:06;14.00;99.90
2999;DHT22;1509;51.964;7.628;2024-03-25T15:18:32;14.30;99.90
2999;DHT22;1509;51.964;7.628;2024-03-25T15:21:01;14.10;99.90
2999;DHT22;1509;51.964;7.628;2024-03-25T15:23:27;14.20;99.90
2999;DHT22;1509;51.964;7.628;2024-03-25T15:25:53;14.10;99.90
2999;DHT22;1509;51.964;7.628;2024-03-25T15:28:19;13.90;99.90
2999;DHT22;1509;51.964;7.628;2024-03-25T15:30:48;13.80;99.90
2999;DHT22;1509;51.964;7.628;2024-03-25T15:33:14;13.80;99.90
2999;DHT22;1509;51.964;7.628;2024-03-25T15:35:40;13.90;99.90
2999;DHT22;1509;51.964;7.628;2024-03-25T15:38:06;14.10;99.90
2999;DHT22;1509;51.964;7.628;2024-03-25T15:40:31;14.00;99.90
2999;DHT22;1509;51.964;7.628;2024-03-25T15:42:58;13.80;99.90
2999;DHT22;1509;51.964;7.628;2024-03-25T15:45:25;14.10;99.90
2999;DHT22;1509;51.964;7.628;2024-03-25T15:47:51;14.20;99.90
2999;DHT22;1509;51.964;7.628;2024-03-25T15:50:16;13.90;99.90
2999;DHT22;1509;51.964;7.628;2024-03-25T15:52:42;13.90;99.90
2999;DHT22;1509;51.964;7.628;2024-03-25T15:55:08;13.80;99.90
2999;DHT22;1509;51.964;7.628;2024-03-25T15:57:37;13.90;99.90
2999;DHT22;1509;51.964;7.628;2024-03-25T16:00:03;13.90;99.90
2999;DHT22;1509;51.964;7.628;2024-03-25T16:02:30;13.90;99.90
2999;DHT22;1509;51.964;7.628;2024-03-25T16:04:56;13.80;99.90